Time;durP1;ratioP1;P1;durP2;ratioP2;P2;SDS_P1;SDS_P2;PMS_P1;PMS_P2;Temp;Humidity;BMP_temperature;BMP_pressure;BME280_temperature;BME280_humidity;BME280_pressure;Samples;Min_cycle;Max_cycle;Signal;HPM_P1;HPM_P2
2021/04/28 00:01:08;;;;;;;12.52;6.57;;;3.40;98.00;;;;;;5031100;28;20025;-72
2021/04/28 00:03:34;;;;;;;11.70;5.95;;;3.30;98.00;;;;;;5032354;28;20029;-72
2021/04/28 00:06:00;;;;;;;13.75;6.65;;;3.30;98.00;;;;;;5032328;28;20395;-72
2021/04/28 00:08:25;;;;;;;12.98;6.15;;;3.30;98.10;;;;;;5030818;28;20084;-73
2021/04/28 00:10:51;;;;;;;13.57;6.32;;;3.20;98.30;;;;;;5032282;28;20083;-73
2021/04/28 00:13:17;;;;;;;12.20;6.07;;;3.20;98.40;;;;;;5032151;28;20026;-72
2021/04/28 00:15:46;;;;;;;12.38;6.45;;;3.10;98.50;;;;;;5032164;28;20025;-72
2021/04/28 00:18:13;;;;;;;13.98;7.18;;;3.10;98.70;;;;;;5032125;28;20075;-73
2021/04/28 00:20:39;;;;;;;12.57;6.70;;;3.00;98.50;;;;;;5032025;28;20076;-72
2021/04/28 00:23:06;;;;;;;11.30;6.68;;;3.00;98.60;;;;;;5031770;28;20025;-72
2021/04/28 00:25:32;;;;;;;14.02;6.97;;;3.00;98.50;;;;;;5032151;28;20029;-73
2021/04/28 00:27:58;;;;;;;12.45;6.80;;;3.00;98.50;;;;;;5032391;28;20032;-73
2021/04/28 00:30:24;;;;;;;14.55;6.22;;;2.90;98.50;;;;;;5031601;28;20444;-72
2021/04/28 00:32:50;;;;;;;13.27;6.90;;;2.90;98.90;;;;;;5031647;28;20018;-72
2021/04/28 00:35:16;;;;;;;13.75;7.60;;;2.80;98.90;;;;;;5032148;28;20022;-72
2021/04/28 00:37:43;;;;;;;13.88;6.85;;;2.80;98.90;;;;;;5032131;28;20460;-72
2021/04/28 00:40:12;;;;;;;14.68;6.85;;;2.80;98.90;;;;;;5030415;28;20419;-72
2021/04/28 00:42:40;;;;;;;12.65;6.82;;;2.80;98.90;;;;;;5030363;28;20369;-72
2021/04/28 00:45:06;;;;;;;13.45;6.30;;;2.70;99.10;;;;;;5031746;28;20028;-72
2021/04/28 00:47:32;;;;;;;12.98;6.35;;;2.70;99.10;;;;;;5031919;28;20107;-72
2021/04/28 00:49:57;;;;;;;13.50;7.30;;;2.60;99.20;;;;;;5031933;28;20025;-72
2021/04/28 00:52:23;;;;;;;12.23;6.70;;;2.60;99.20;;;;;;5031931;28;20030;-72
2021/04/28 00:54:50;;;;;;;12.75;6.93;;;2.60;99.30;;;;;;5032499;28;20025;-72
2021/04/28 00:57:16;;;;;;;13.77;7.68;;;2.50;99.30;;;;;;5031854;28;20071;-72
2021/04/28 00:59:41;;;;;;;16.42;7.28;;;2.40;99.40;;;;;;5031758;28;20029;-72
2021/04/28 01:02:07;;;;;;;14.23;7.20;;;2.40;99.40;;;;;;5030284;28;20074;-72
2021/04/28 01:04:32;;;;;;;12.93;6.95;;;2.40;99.50;;;;;;5031737;28;20022;-72
2021/04/28 01:06:58;;;;;;;12.95;6.80;;;2.40;99.70;;;;;;5031728;28;20029;-72
2021/04/28 01:09:24;;;;;;;13.30;7.35;;;2.40;99.70;;;;;;5031581;28;20468;-72
2021/04/28 01:11:50;;;;;;;15.82;7.35;;;2.30;99.70;;;;;;5031568;28;20120;-72
2021/04/28 01:14:16;;;;;;;14.93;7.50;;;2.30;99.70;;;;;;5030160;28;20071;-72
2021/04/28 01:16:41;;;;;;;13.65;7.05;;;2.20;99.80;;;;;;5030117;28;20040;-72
2021/04/28 01:19:07;;;;;;;16.60;7.38;;;2.20;99.90;;;;;;5030238;28;20036;-72
2021/04/28 01:21:32;;;;;;;13.95;7.10;;;2.20;99.90;;;;;;5030844;28;20689;-72
2021/04/28 01:23:58;;;;;;;14.85;7.07;;;2.10;99.90;;;;;;5030818;28;20488;-73
2021/04/28 01:26:28;;;;;;;13.60;7.05;;;2.00;99.90;;;;;;5031236;28;20029;-72
2021/04/28 01:28:59;;;;;;;15.38;7.78;;;1.90;99.90;;;;;;5031013;28;20040;-72
2021/04/28 01:31:25;;;;;;;;;;;2.00;99.90;;;;;;5031327;28;20026;-72
2021/04/28 01:33:57;;;;;;;15.38;7.70;;;2.00;99.90;;;;;;5031129;28;19932;-72
2021/04/28 01:36:27;;;;;;;12.13;7.03;;;2.00;99.90;;;;;;5031047;28;20097;-73
2021/04/28 01:38:56;;;;;;;16.08;8.70;;;2.00;99.90;;;;;;5030027;28;20025;-72
2021/04/28 01:41:23;;;;;;;15.55;7.75;;;1.90;99.90;;;;;;5030848;28;20034;-72
2021/04/28 01:43:49;;;;;;;14.25;7.43;;;1.90;99.90;;;;;;5033063;28;20025;-72
2021/04/28 01:46:16;;;;;;;13.55;7.95;;;1.90;99.90;;;;;;5035023;28;20026;-72
2021/04/28 01:48:44;;;;;;;14.90;7.30;;;1.90;99.90;;;;;;5034945;28;20025;-72
2021/04/28 01:51:12;;;;;;;14.50;7.35;;;1.90;99.90;;;;;;5033690;28;20041;-72
2021/04/28 01:53:38;;;;;;;15.90;7.90;;;1.90;99.90;;;;;;5035415;28;20021;-72
2021/04/28 01:56:04;;;;;;;21.40;7.60;;;1.80;99.90;;;;;;5033761;28;20499;-72
2021/04/28 01:58:31;;;;;;;16.27;7.50;;;1.80;99.90;;;;;;5034972;28;20025;-72
2021/04/28 02:00:58;;;;;;;19.30;7.60;;;1.70;99.90;;;;;;5033559;28;20025;-72
2021/04/28 02:03:25;;;;;;;17.13;8.32;;;1.70;99.90;;;;;;5034886;28;20352;-72
2021/04/28 02:05:51;;;;;;;17.77;8.13;;;1.70;99.90;;;;;;5035253;28;20025;-72
2021/04/28 02:08:17;;;;;;;15.52;8.10;;;1.70;99.90;;;;;;5034958;28;20116;-72
2021/04/28 02:10:43;;;;;;;15.32;7.93;;;1.60;99.90;;;;;;5033206;28;20113;-72
2021/04/28 02:13:13;;;;;;;17.95;8.10;;;1.60;99.90;;;;;;5033048;28;20021;-72
2021/04/28 02:15:39;;;;;;;13.23;7.55;;;1.60;99.90;;;;;;5034420;28;20018;-72
2021/04/28 02:18:07;;;;;;;15.73;7.72;;;1.60;99.90;;;;;;5033740;28;20037;-73
2021/04/28 02:20:33;;;;;;;15.73;7.88;;;1.60;99.90;;;;;;5034433;28;20037;-72
2021/04/28 02:23:02;;;;;;;15.70;7.85;;;1.60;99.90;;;;;;5034411;28;20476;-72
2021/04/28 02:25:28;;;;;;;14.02;7.53;;;1.60;99.90;;;;;;5034373;28;20446;-73
2021/04/28 02:27:54;;;;;;;15.95;7.95;;;1.50;99.90;;;;;;5034425;28;20037;-73
2021/04/28 02:30:21;;;;;;;18.73;8.15;;;1.50;99.90;;;;;;5034389;28;20033;-72
2021/04/28 02:32:49;;;;;;;12.50;7.65;;;1.50;99.90;;;;;;5033227;28;20030;-73
2021/04/28 02:35:15;;;;;;;16.00;8.10;;;1.50;99.90;;;;;;5032944;28;20475;-73
2021/04/28 02:37:45;;;;;;;17.65;7.88;;;1.50;99.90;;;;;;5033884;28;20108;-73
2021/04/28 02:40:13;;;;;;;15.38;8.45;;;1.30;99.90;;;;;;5032899;28;20026;-73
2021/04/28 02:42:39;;;;;;;13.10;7.28;;;1.40;99.90;;;;;;5034042;28;20075;-72
2021/04/28 02:45:07;;;;;;;15.57;9.13;;;1.20;99.90;;;;;;5033911;28;20025;-73
2021/04/28 02:47:34;;;;;;;14.45;8.25;;;1.10;99.90;;;;;;5033711;28;20029;-72
2021/04/28 02:50:04;;;;;;;15.05;8.68;;;1.10;99.90;;;;;;5033675;28;20090;-73
2021/04/28 02:52:30;;;;;;;17.88;9.25;;;1.30;99.90;;;;;;5032193;28;20075;-73
2021/04/28 02:54:56;;;;;;;13.32;7.35;;;1.30;99.90;;;;;;5033334;28;20503;-73
2021/04/28 02:57:22;;;;;;;17.02;9.13;;;1.30;99.90;;;;;;5034024;28;20014;-72
2021/04/28 02:59:50;;;;;;;14.70;8.18;;;1.20;99.90;;;;;;5033735;28;20025;-72
2021/04/28 03:02:16;;;;;;;17.00;7.90;;;1.30;99.90;;;;;;5032166;28;20033;-73
2021/04/28 03:04:42;;;;;;;16.55;8.25;;;1.20;99.90;;;;;;5033724;28;20395;-73
2021/04/28 03:07:14;;;;;;;18.23;8.80;;;1.30;99.90;;;;;;5032225;28;20022;-73
2021/04/28 03:09:41;;;;;;;14.75;8.13;;;1.20;99.90;;;;;;5033716;28;20094;-72
2021/04/28 03:12:07;;;;;;;13.63;8.35;;;1.20;99.90;;;;;;5031806;28;20451;-73
2021/04/28 03:14:33;;;;;;;18.45;8.30;;;1.10;99.90;;;;;;5033425;28;20025;-72
2021/04/28 03:16:59;;;;;;;16.13;8.05;;;1.20;99.90;;;;;;5032164;28;20466;-72
2021/04/28 03:19:25;;;;;;;15.40;8.18;;;1.20;99.90;;;;;;5033313;28;20033;-72
2021/04/28 03:21:51;;;;;;;16.20;8.50;;;1.10;99.90;;;;;;5031950;28;20030;-73
2021/04/28 03:24:18;;;;;;;13.10;7.82;;;1.10;99.90;;;;;;5033441;28;20030;-73
2021/04/28 03:26:45;;;;;;;15.07;8.40;;;1.20;99.90;;;;;;5031697;28;20057;-72
2021/04/28 03:29:11;;;;;;;13.55;8.32;;;1.10;99.90;;;;;;5032715;28;20037;-72
2021/04/28 03:31:37;;;;;;;14.00;7.47;;;1.00;99.90;;;;;;5032511;28;20033;-72
2021/04/28 03:34:03;;;;;;;18.48;8.40;;;1.00;99.90;;;;;;5031788;28;20022;-72
2021/04/28 03:36:29;;;;;;;17.23;8.52;;;0.90;99.90;;;;;;5033325;28;20381;-72
2021/04/28 03:38:54;;;;;;;17.48;9.40;;;0.90;99.90;;;;;;5031461;28;20022;-72
2021/04/28 03:41:21;;;;;;;16.55;8.63;;;0.80;99.90;;;;;;5032732;28;20029;-73
2021/04/28 03:43:46;;;;;;;16.40;8.70;;;0.80;99.90;;;;;;5033281;28;20017;-72
2021/04/28 03:46:12;;;;;;;19.60;9.32;;;0.80;99.90;;;;;;5033445;28;20120;-72
2021/04/28 03:48:38;;;;;;;17.90;9.15;;;0.70;99.90;;;;;;5033319;28;20365;-72
2021/04/28 03:51:04;;;;;;;18.45;9.65;;;0.80;99.90;;;;;;5032745;28;20035;-73
2021/04/28 03:53:29;;;;;;;25.02;8.52;;;0.80;99.90;;;;;;5030856;28;20028;-73
2021/04/28 03:55:55;;;;;;;17.02;9.27;;;0.70;99.90;;;;;;5032570;28;20033;-73
2021/04/28 03:58:21;;;;;;;17.85;10.00;;;0.80;99.90;;;;;;5032488;28;20080;-73
2021/04/28 04:00:46;;;;;;;19.55;9.63;;;0.60;99.90;;;;;;5032243;28;20076;-73
2021/04/28 04:03:12;;;;;;;17.10;9.70;;;0.50;99.90;;;;;;5032200;28;20269;-73
2021/04/28 04:05:38;;;;;;;16.63;9.15;;;0.50;99.90;;;;;;5031683;28;20443;-73
2021/04/28 04:08:03;;;;;;;17.05;9.57;;;0.50;99.90;;;;;;5032197;28;20032;-73
2021/04/28 04:10:30;;;;;;;15.85;9.15;;;0.60;99.90;;;;;;5032035;28;20033;-73
2021/04/28 04:12:56;;;;;;;18.33;9.10;;;0.60;99.90;;;;;;5031853;28;20096;-73
2021/04/28 04:15:21;;;;;;;20.50;9.30;;;0.70;99.90;;;;;;5032419;28;20112;-73
2021/04/28 04:17:47;;;;;;;17.08;9.27;;;0.70;99.90;;;;;;5031922;28;20109;-73
2021/04/28 04:20:13;;;;;;;18.20;9.70;;;0.70;99.90;;;;;;5032120;28;20030;-73
2021/04/28 04:22:38;;;;;;;17.23;9.98;;;0.80;99.90;;;;;;5031669;28;20100;-73
2021/04/28 04:25:06;;;;;;;19.17;10.20;;;0.90;99.90;;;;;;5032011;28;20022;-73
2021/04/28 04:27:33;;;;;;;28.05;10.80;;;0.90;99.90;;;;;;5031936;28;20061;-73
2021/04/28 04:29:59;;;;;;;22.23;11.88;;;0.90;99.90;;;;;;5030334;28;20025;-72
2021/04/28 04:32:25;;;;;;;25.38;13.13;;;1.00;99.90;;;;;;5031593;28;20155;-73
2021/04/28 04:34:50;;;;;;;24.27;12.68;;;1.00;99.90;;;;;;5030913;28;20108;-73
2021/04/28 04:37:16;;;;;;;17.50;9.98;;;1.10;99.90;;;;;;5031853;28;20122;-73
2021/04/28 04:39:41;;;;;;;19.67;11.68;;;1.10;99.90;;;;;;5031555;28;20587;-73
2021/04/28 04:42:08;;;;;;;20.60;10.30;;;1.10;99.90;;;;;;5031184;28;20496;-73
2021/04/28 04:44:34;;;;;;;17.90;10.55;;;1.20;99.90;;;;;;5031401;28;20032;-72
2021/04/28 04:47:00;;;;;;;18.33;10.30;;;1.30;99.90;;;;;;5031562;28;20069;-72
2021/04/28 04:49:25;;;;;;;15.52;10.27;;;1.40;99.90;;;;;;5031844;28;20319;-73
2021/04/28 04:51:51;;;;;;;21.17;10.68;;;1.40;99.90;;;;;;5031102;28;20044;-73
2021/04/28 04:54:16;;;;;;;22.02;10.27;;;1.50;99.90;;;;;;5030089;28;20080;-73
2021/04/28 04:56:42;;;;;;;17.23;9.65;;;1.60;99.90;;;;;;5031208;28;20044;-73
2021/04/28 04:59:08;;;;;;;19.67;10.05;;;1.60;99.90;;;;;;5030031;28;20041;-72
2021/04/28 05:01:33;;;;;;;18.58;10.25;;;1.70;99.90;;;;;;5030871;28;20480;-72
2021/04/28 05:03:59;;;;;;;18.67;10.30;;;1.80;99.90;;;;;;5031235;28;20025;-72
2021/04/28 05:06:24;;;;;;;16.15;9.95;;;1.80;99.90;;;;;;5031011;28;20029;-72
2021/04/28 05:08:50;;;;;;;17.52;11.63;;;1.80;99.90;;;;;;5030843;28;20400;-72
2021/04/28 05:11:16;;;;;;;16.33;9.52;;;1.90;99.90;;;;;;5029507;28;20029;-72
2021/04/28 05:13:42;;;;;;;21.10;11.45;;;2.00;99.90;;;;;;5030832;28;20474;-72
2021/04/28 05:16:07;;;;;;;19.20;10.25;;;2.10;99.90;;;;;;5030706;28;20028;-72
2021/04/28 05:18:33;;;;;;;18.60;9.40;;;2.20;99.90;;;;;;5030849;28;20083;-72
2021/04/28 05:20:58;;;;;;;18.98;10.00;;;2.30;99.90;;;;;;5030829;28;20480;-72
2021/04/28 05:23:24;;;;;;;16.80;8.75;;;2.40;99.90;;;;;;5030492;28;20266;-72
2021/04/28 05:25:49;;;;;;;15.35;9.55;;;2.50;99.90;;;;;;5029473;28;20064;-71
2021/04/28 05:28:15;;;;;;;18.08;9.57;;;2.60;99.90;;;;;;5030599;28;20064;-71
2021/04/28 05:30:41;;;;;;;15.27;9.43;;;2.70;99.90;;;;;;5036161;28;20052;-72
2021/04/28 05:33:07;;;;;;;19.15;10.30;;;2.70;99.90;;;;;;5039972;28;20029;-72
2021/04/28 05:35:33;;;;;;;15.60;9.32;;;2.80;99.90;;;;;;5030839;28;20018;-72
2021/04/28 05:37:58;;;;;;;17.20;9.98;;;2.90;99.90;;;;;;5030630;28;20025;-71
2021/04/28 05:40:24;;;;;;;16.75;9.32;;;3.00;99.90;;;;;;5030666;28;20026;-72
2021/04/28 05:42:49;;;;;;;21.35;10.10;;;3.10;99.90;;;;;;5029031;28;20040;-72
2021/04/28 05:45:15;;;;;;;15.60;9.27;;;3.20;99.90;;;;;;5030602;28;20038;-72
2021/04/28 05:47:42;;;;;;;22.30;9.07;;;3.30;99.90;;;;;;5031143;28;20022;-72
2021/04/28 05:50:11;;;;;;;21.40;9.65;;;3.40;99.90;;;;;;5029154;28;20030;-71
2021/04/28 05:52:37;;;;;;;20.30;9.60;;;3.50;99.90;;;;;;5030380;28;20056;-71
2021/04/28 05:55:04;;;;;;;20.33;9.40;;;3.60;99.90;;;;;;5029052;28;20033;-71
2021/04/28 05:57:32;;;;;;;16.92;9.50;;;3.70;99.70;;;;;;5043925;28;20024;-71
2021/04/28 05:59:58;;;;;;;17.23;9.57;;;3.80;99.90;;;;;;5029128;28;20472;-71
2021/04/28 06:02:23;;;;;;;16.10;9.23;;;3.90;99.50;;;;;;5030479;28;20104;-71
2021/04/28 06:04:49;;;;;;;20.17;9.52;;;3.90;99.30;;;;;;5035755;28;20113;-71
2021/04/28 06:07:14;;;;;;;21.20;9.82;;;4.00;99.50;;;;;;5041765;28;20059;-72
2021/04/28 06:09:40;;;;;;;17.98;9.18;;;4.10;99.70;;;;;;5050360;28;20071;-72
2021/04/28 06:12:05;;;;;;;19.20;10.23;;;4.20;99.30;;;;;;5050209;28;20037;-71
2021/04/28 06:14:31;;;;;;;15.32;9.20;;;4.40;99.60;;;;;;5050386;28;20029;-71
2021/04/28 06:16:58;;;;;;;18.80;10.57;;;4.50;99.50;;;;;;5049003;28;20028;-71
2021/04/28 06:19:23;;;;;;;21.83;9.82;;;4.60;99.30;;;;;;5050225;28;20016;-71
2021/04/28 06:21:49;;;;;;;21.40;10.35;;;4.80;99.20;;;;;;5050254;28;20108;-71
2021/04/28 06:24:14;;;;;;;23.90;10.52;;;4.90;98.80;;;;;;5050591;28;20029;-71
2021/04/28 06:26:43;;;;;;;22.73;9.80;;;5.00;98.80;;;;;;5050454;28;20029;-70
2021/04/28 06:29:09;;;;;;;17.52;10.38;;;5.00;98.30;;;;;;5052246;28;20033;-71
2021/04/28 06:31:35;;;;;;;17.58;10.00;;;5.10;98.30;;;;;;5053751;28;20063;-70
2021/04/28 06:34:00;;;;;;;20.88;10.27;;;5.30;98.40;;;;;;5054199;28;20021;-71
2021/04/28 06:36:27;;;;;;;18.77;9.63;;;5.40;98.70;;;;;;5053734;28;20025;-71
2021/04/28 06:38:52;;;;;;;24.83;10.00;;;5.50;97.90;;;;;;5053534;28;20024;-71
2021/04/28 06:41:18;;;;;;;21.58;9.77;;;5.60;98.20;;;;;;5053606;28;20068;-71
2021/04/28 06:43:43;;;;;;;18.35;9.43;;;5.80;97.60;;;;;;5052673;28;20029;-72
2021/04/28 06:46:09;;;;;;;23.15;9.10;;;5.90;97.70;;;;;;5033569;28;20076;-72
2021/04/28 06:48:35;;;;;;;21.58;9.90;;;6.00;97.30;;;;;;5033182;28;20026;-71
2021/04/28 06:51:01;;;;;;;23.80;10.05;;;6.20;97.50;;;;;;5033314;28;20106;-71
2021/04/28 06:53:27;;;;;;;19.35;9.88;;;6.20;96.00;;;;;;5033279;28;20021;-72
2021/04/28 06:55:52;;;;;;;15.95;9.32;;;6.30;96.10;;;;;;5033359;28;20024;-71
2021/04/28 06:58:18;;;;;;;17.73;9.32;;;6.40;95.30;;;;;;5033311;28;20447;-71
2021/04/28 07:00:44;;;;;;;17.13;9.20;;;6.50;96.50;;;;;;5033075;28;20491;-71
2021/04/28 07:03:10;;;;;;;14.70;9.27;;;6.60;96.30;;;;;;5033079;28;20390;-71
2021/04/28 07:05:35;;;;;;;20.13;10.30;;;6.80;96.00;;;;;;5033174;28;20105;-71
2021/04/28 07:08:01;;;;;;;16.45;9.98;;;6.90;95.40;;;;;;5033072;28;20512;-71
2021/04/28 07:10:27;;;;;;;19.67;10.13;;;7.00;95.80;;;;;;5033041;28;20048;-71
2021/04/28 07:12:53;;;;;;;18.75;9.43;;;7.20;96.00;;;;;;5032766;28;20028;-71
2021/04/28 07:15:19;;;;;;;21.38;11.82;;;7.40;96.30;;;;;;5032958;28;20083;-71
2021/04/28 07:17:48;;;;;;;22.75;10.85;;;7.50;95.30;;;;;;5032942;28;20212;-71
2021/04/28 07:20:15;;;;;;;17.92;10.02;;;7.70;95.50;;;;;;5046526;28;20024;-71
2021/04/28 07:22:41;;;;;;;20.23;10.15;;;7.80;95.90;;;;;;5040553;28;20025;-71
2021/04/28 07:25:07;;;;;;;20.38;10.30;;;7.90;95.50;;;;;;5032669;28;20547;-71
2021/04/28 07:27:33;;;;;;;20.45;10.63;;;8.00;95.10;;;;;;5031324;28;20041;-72
2021/04/28 07:29:58;;;;;;;19.83;10.35;;;8.20;95.50;;;;;;5030963;28;20159;-71
2021/04/28 07:32:24;;;;;;;17.88;10.55;;;8.30;93.70;;;;;;5032353;28;20029;-71
2021/04/28 07:34:50;;;;;;;19.70;11.70;;;8.50;94.90;;;;;;5032467;28;20044;-72
2021/04/28 07:37:15;;;;;;;17.52;10.48;;;8.60;94.90;;;;;;5032405;28;20028;-71
2021/04/28 07:39:41;;;;;;;22.42;12.23;;;8.70;94.40;;;;;;5031653;28;20056;-71
2021/04/28 07:42:07;;;;;;;20.15;10.88;;;8.80;94.30;;;;;;5031965;28;20101;-71
2021/04/28 07:44:32;;;;;;;20.70;12.15;;;8.90;94.90;;;;;;5031204;28;20057;-71
2021/04/28 07:46:59;;;;;;;18.25;10.73;;;9.10;94.30;;;;;;5031101;28;20029;-71
2021/04/28 07:49:25;;;;;;;21.13;11.38;;;9.10;93.00;;;;;;5032010;28;20061;-72
2021/04/28 07:51:51;;;;;;;20.27;11.52;;;9.20;94.80;;;;;;5032001;28;20483;-71
2021/04/28 07:54:17;;;;;;;20.33;11.65;;;9.40;93.50;;;;;;5032237;28;20089;-71
2021/04/28 07:56:43;;;;;;;21.63;11.00;;;9.50;93.30;;;;;;5032150;28;20108;-71
2021/04/28 07:59:08;;;;;;;20.05;11.32;;;9.70;93.50;;;;;;5033233;28;20105;-72
2021/04/28 08:01:34;;;;;;;26.15;11.77;;;9.80;93.30;;;;;;5041744;28;20017;-71
2021/04/28 08:03:59;;;;;;;19.88;11.05;;;10.00;93.40;;;;;;5050723;28;20585;-71
2021/04/28 08:06:25;;;;;;;20.58;11.40;;;10.10;92.60;;;;;;5050934;28;20028;-71
2021/04/28 08:08:51;;;;;;;23.42;11.20;;;10.20;92.70;;;;;;5051534;28;20483;-71
2021/04/28 08:11:16;;;;;;;24.98;10.45;;;10.40;93.80;;;;;;5051377;28;20029;-71
2021/04/28 08:13:42;;;;;;;20.27;11.05;;;10.50;92.10;;;;;;5051841;28;20033;-71
2021/04/28 08:16:08;;;;;;;20.00;10.60;;;10.70;93.80;;;;;;5050411;28;20156;-71
2021/04/28 08:18:34;;;;;;;22.10;10.57;;;10.80;91.20;;;;;;5051601;28;20532;-71
2021/04/28 08:21:00;;;;;;;20.45;10.70;;;10.90;91.80;;;;;;5050266;28;20112;-71
2021/04/28 08:23:30;;;;;;;19.23;11.18;;;11.10;92.90;;;;;;5051411;28;20029;-71
2021/04/28 08:26:03;;;;;;;20.10;10.50;;;11.20;91.90;;;;;;5051565;28;20023;-71
2021/04/28 08:28:29;;;;;;;22.52;11.38;;;11.30;92.70;;;;;;5048544;28;20029;-71
2021/04/28 08:30:55;;;;;;;20.45;9.70;;;11.60;92.50;;;;;;5032411;28;20136;-71
2021/04/28 08:33:20;;;;;;;17.90;10.55;;;11.60;90.20;;;;;;5030052;28;20567;-71
2021/04/28 08:35:46;;;;;;;18.33;9.88;;;11.70;88.90;;;;;;5048441;28;20100;-72
2021/04/28 08:38:12;;;;;;;19.00;9.38;;;11.80;89.80;;;;;;5051060;28;20025;-72
2021/04/28 08:40:38;;;;;;;16.38;9.93;;;12.00;85.70;;;;;;5051257;28;20040;-73
2021/04/28 08:43:05;;;;;;;19.00;9.82;;;12.30;92.20;;;;;;5050975;28;20464;-73
2021/04/28 08:45:31;;;;;;;18.35;9.48;;;12.50;86.40;;;;;;5051416;28;20142;-73
2021/04/28 08:47:57;;;;;;;17.70;9.35;;;12.60;80.80;;;;;;5051157;28;20025;-73
2021/04/28 08:50:22;;;;;;;19.48;9.93;;;12.70;83.00;;;;;;5051006;28;20076;-73
2021/04/28 08:52:52;;;;;;;16.90;8.77;;;12.70;85.20;;;;;;5050415;28;20075;-72
2021/04/28 08:55:19;;;;;;;14.93;9.30;;;12.80;82.40;;;;;;5051051;28;20075;-73
2021/04/28 08:57:44;;;;;;;21.33;9.80;;;13.00;82.60;;;;;;5049827;28;20056;-72
2021/04/28 09:00:10;;;;;;;18.08;9.38;;;13.20;84.60;;;;;;5050939;28;20036;-72
2021/04/28 09:03:02;;;;;;;14.52;8.73;;;13.30;80.70;;;;;;5050591;28;20021;-73
2021/04/28 09:05:29;;;;;;;15.13;9.00;;;13.40;78.90;;;;;;5050954;28;20441;-72
2021/04/28 09:07:55;;;;;;;18.27;9.40;;;13.50;79.40;;;;;;5050757;28;20460;-72
2021/04/28 09:10:29;;;;;;;19.20;8.93;;;13.80;83.30;;;;;;5050860;28;20082;-72
2021/04/28 09:13:04;;;;;;;15.38;8.95;;;14.00;74.30;;;;;;5050510;28;20496;-72
2021/04/28 09:15:40;;;;;;;17.63;9.15;;;14.00;74.70;;;;;;5050812;28;20070;-72
2021/04/28 09:18:14;;;;;;;14.90;8.20;;;14.10;77.90;;;;;;5050675;28;20020;-72
2021/04/28 09:20:49;;;;;;;16.15;8.00;;;14.20;78.30;;;;;;5050741;28;20021;-72
2021/04/28 09:23:21;;;;;;;15.52;7.57;;;14.40;73.80;;;;;;5049121;28;20025;-72
2021/04/28 09:25:52;;;;;;;13.45;8.25;;;14.60;75.70;;;;;;5049437;28;20021;-72
2021/04/28 09:28:29;;;;;;;15.63;7.57;;;14.80;69.80;;;;;;5050623;28;20388;-72
2021/04/28 09:31:07;;;;;;;14.20;7.68;;;14.90;72.40;;;;;;5050592;28;20107;-71
2021/04/28 09:33:48;;;;;;;28.67;10.48;;;15.10;75.00;;;;;;5048952;28;20025;-71
2021/04/28 09:36:15;;;;;;;16.20;8.32;;;15.20;73.00;;;;;;5050585;28;20022;-71
2021/04/28 09:39:11;;;;;;;15.93;7.45;;;15.30;66.60;;;;;;5050472;28;20021;-71
2021/04/28 09:41:42;;;;;;;52.30;15.00;;;15.20;63.10;;;;;;5049121;28;20039;-71
2021/04/28 09:44:17;;;;;;;15.13;7.10;;;15.20;71.50;;;;;;5050978;28;20486;-71
2021/04/28 09:47:08;;;;;;;11.45;6.43;;;15.40;61.90;;;;;;5050547;28;20029;-71
2021/04/28 09:49:57;;;;;;;10.77;6.68;;;15.50;63.00;;;;;;5050482;28;20025;-71
2021/04/28 09:52:37;;;;;;;12.55;5.47;;;15.70;60.20;;;;;;5050229;28;20040;-71
2021/04/28 09:55:14;;;;;;;34.53;7.05;;;15.70;59.00;;;;;;5050362;28;20155;-71
2021/04/28 09:57:45;;;;;;;11.05;6.47;;;15.70;60.90;;;;;;5050438;28;20483;-71
2021/04/28 10:00:25;;;;;;;8.75;5.45;;;15.90;62.10;;;;;;5050254;28;20376;-72
2021/04/28 10:03:00;;;;;;;10.00;5.77;;;16.00;60.60;;;;;;5050263;28;20088;-71
2021/04/28 10:05:35;;;;;;;10.68;5.88;;;16.10;58.90;;;;;;5053234;28;20263;-71
2021/04/28 10:08:13;;;;;;;11.73;5.88;;;16.20;64.20;;;;;;5054675;28;20025;-71
2021/04/28 10:10:39;;;;;;;16.63;6.07;;;16.30;60.10;;;;;;5054453;28;20025;-71
2021/04/28 10:13:05;;;;;;;11.57;5.75;;;16.40;65.20;;;;;;5054281;28;20070;-71
2021/04/28 10:15:31;;;;;;;10.68;5.40;;;16.40;57.20;;;;;;5054286;28;20025;-72
2021/04/28 10:18:01;;;;;;;11.05;5.60;;;16.30;60.10;;;;;;5054171;28;20017;-71
2021/04/28 10:20:28;;;;;;;10.30;5.18;;;16.50;55.80;;;;;;5053968;28;20063;-72
2021/04/28 10:22:55;;;;;;;10.60;5.25;;;16.50;58.70;;;;;;5053880;28;20391;-72
2021/04/28 10:25:22;;;;;;;17.33;5.53;;;16.50;60.20;;;;;;5053966;28;20449;-72
2021/04/28 10:27:49;;;;;;;11.02;5.47;;;16.80;59.30;;;;;;5053834;28;20027;-72
2021/04/28 10:30:16;;;;;;;9.10;5.43;;;16.90;59.90;;;;;;5053490;28;20112;-72
2021/04/28 10:32:43;;;;;;;10.45;5.78;;;16.80;52.20;;;;;;5052452;28;20064;-72
2021/04/28 10:35:13;;;;;;;12.02;5.03;;;16.80;55.30;;;;;;5053719;28;20025;-73
2021/04/28 10:37:41;;;;;;;;;;;16.90;57.60;;;;;;5054015;28;20025;-72
2021/04/28 10:40:14;;;;;;;11.00;6.15;;;17.00;50.60;;;;;;5053576;28;19905;-72
2021/04/28 10:42:40;;;;;;;10.23;5.50;;;16.90;54.80;;;;;;5053487;28;20024;-73
2021/04/28 10:45:22;;;;;;;13.15;5.93;;;16.90;55.80;;;;;;5053477;28;20017;-72
2021/04/28 10:47:51;;;;;;;14.65;5.40;;;17.00;53.00;;;;;;5053533;28;20638;-72
2021/04/28 10:50:21;;;;;;;9.43;5.05;;;17.10;52.20;;;;;;5053340;28;20032;-72
2021/04/28 10:53:00;;;;;;;13.73;5.22;;;17.10;50.50;;;;;;5053351;28;20016;-72
2021/04/28 10:55:50;;;;;;;8.75;5.00;;;17.10;48.90;;;;;;5053378;28;20495;-72
2021/04/28 10:58:32;;;;;;;8.63;4.88;;;17.10;52.10;;;;;;5052012;28;20040;-73
2021/04/28 11:01:06;;;;;;;14.00;5.50;;;17.10;50.00;;;;;;5053143;28;20025;-72
2021/04/28 11:03:45;;;;;;;11.57;5.20;;;17.10;50.50;;;;;;5053202;28;20024;-73
2021/04/28 11:06:23;;;;;;;12.40;5.95;;;17.20;49.80;;;;;;5053107;28;20021;-72
2021/04/28 11:09:02;;;;;;;8.85;5.53;;;17.10;43.50;;;;;;5052963;28;20021;-72
2021/04/28 11:14:08;;;;;;;9.93;4.57;;;17.30;49.60;;;;;;5053045;28;20078;-73
2021/04/28 11:16:49;;;;;;;15.25;5.22;;;17.40;55.10;;;;;;5051541;28;20029;-72
2021/04/28 11:19:35;;;;;;;8.57;4.57;;;17.60;49.60;;;;;;5051314;28;20086;-72
2021/04/28 11:22:06;;;;;;;9.15;4.57;;;17.80;51.70;;;;;;5052644;28;20029;-72
2021/04/28 11:25:03;;;;;;;11.45;4.80;;;17.90;50.50;;;;;;5052794;28;20032;-72
2021/04/28 11:27:44;;;;;;;13.45;4.93;;;18.10;52.50;;;;;;5048412;28;20033;-73
2021/04/28 11:30:30;;;;;;;11.18;5.00;;;18.20;52.50;;;;;;5052420;28;20029;-72
2021/04/28 11:33:05;;;;;;;7.97;4.68;;;18.40;51.90;;;;;;5052588;28;20391;-72
2021/04/28 11:35:30;;;;;;;10.60;4.93;;;18.50;49.10;;;;;;5052633;28;20057;-72
2021/04/28 11:38:11;;;;;;;9.55;4.80;;;18.50;50.60;;;;;;5052583;28;20307;-72
2021/04/28 11:41:08;;;;;;;;;;;18.60;53.00;;;;;;5052921;28;20407;-72
2021/04/28 11:43:44;;;;;;;11.93;5.80;;;18.50;45.30;;;;;;5038771;28;19940;-72
2021/04/28 11:46:31;;;;;;;8.55;4.72;;;18.50;48.40;;;;;;5052421;28;20418;-72
2021/04/28 11:48:59;;;;;;;11.02;5.30;;;18.50;52.30;;;;;;5052823;28;20051;-73
2021/04/28 11:51:27;;;;;;;12.50;6.03;;;18.60;52.20;;;;;;5051885;28;20048;-72
2021/04/28 11:54:04;;;;;;;10.30;5.53;;;18.70;51.20;;;;;;5052195;28;20025;-72
2021/04/28 11:56:38;;;;;;;9.43;5.20;;;18.60;43.80;;;;;;5052210;28;20048;-72
2021/04/28 11:59:18;;;;;;;10.90;5.30;;;18.60;52.00;;;;;;5052004;28;20302;-72
2021/04/28 12:01:44;;;;;;;18.67;5.82;;;18.70;44.80;;;;;;5051754;28;20096;-72
2021/04/28 12:04:10;;;;;;;16.88;5.65;;;18.80;49.60;;;;;;5051918;28;20053;-72
2021/04/28 12:06:46;;;;;;;10.10;5.20;;;18.90;50.10;;;;;;5051632;28;20017;-72
2021/04/28 12:09:49;;;;;;;10.43;5.70;;;19.30;50.00;;;;;;5050515;28;20021;-72
2021/04/28 12:12:17;;;;;;;7.35;4.18;;;19.60;43.30;;;;;;5051570;28;20029;-72
2021/04/28 12:14:51;;;;;;;10.90;5.50;;;20.20;47.20;;;;;;5051782;28;20028;-72
2021/04/28 12:17:19;;;;;;;12.98;5.90;;;21.20;47.00;;;;;;5051790;28;20025;-72
2021/04/28 12:19:47;;;;;;;10.57;5.00;;;22.40;42.30;;;;;;5051732;28;20036;-72
2021/04/28 12:22:13;;;;;;;10.02;5.20;;;23.60;41.80;;;;;;5051228;28;20036;-73
2021/04/28 12:24:45;;;;;;;9.23;5.72;;;24.40;40.30;;;;;;5050339;28;20033;-70
2021/04/28 12:27:15;;;;;;;12.55;5.63;;;25.10;36.50;;;;;;5049520;28;20028;-70
2021/04/28 12:29:47;;;;;;;8.70;4.70;;;26.00;35.60;;;;;;5051200;28;20037;-70
2021/04/28 12:32:13;;;;;;;8.68;5.47;;;26.60;34.80;;;;;;5051581;28;20091;-70
2021/04/28 12:34:41;;;;;;;10.05;5.20;;;27.50;31.40;;;;;;5051008;28;20066;-69
2021/04/28 12:37:21;;;;;;;9.38;5.05;;;28.10;34.40;;;;;;5051337;28;20029;-69
2021/04/28 12:39:49;;;;;;;9.02;5.65;;;28.70;32.70;;;;;;5051217;28;20208;-69
2021/04/28 12:42:20;;;;;;;14.90;6.03;;;28.00;28.30;;;;;;5050804;28;20035;-69
2021/04/28 12:44:47;;;;;;;12.10;5.57;;;27.80;28.60;;;;;;5042520;28;20022;-70
2021/04/28 12:47:13;;;;;;;18.65;5.72;;;27.40;31.40;;;;;;5031130;28;20041;-72
2021/04/28 12:49:38;;;;;;;12.43;4.88;;;27.80;33.50;;;;;;5031151;28;20197;-72
2021/04/28 12:52:14;;;;;;;11.63;5.32;;;28.50;32.10;;;;;;5030903;28;20024;-72